createdAt,value
2022-11-29T00:06:30.288Z,49.00
2022-11-29T00:16:31.691Z,49.00
2022-11-29T00:26:33.106Z,49.00
2022-11-29T00:36:34.488Z,48.90
2022-11-29T00:46:35.888Z,48.90
2022-11-29T00:56:37.261Z,48.90
2022-11-29T01:06:38.650Z,48.90
2022-11-29T01:16:40.079Z,48.90
2022-11-29T01:26:41.513Z,48.90
2022-11-29T01:36:42.898Z,48.90
2022-11-29T01:46:44.300Z,48.90
2022-11-29T01:56:45.697Z,48.90
2022-11-29T02:06:47.086Z,48.80
2022-11-29T02:16:51.087Z,48.80
2022-11-29T02:26:56.495Z,48.80
2022-11-29T02:46:59.761Z,48.20
2022-11-29T02:57:01.143Z,48.80
2022-11-29T03:07:02.530Z,48.70
2022-11-29T03:17:03.910Z,48.70
2022-11-29T03:27:05.300Z,48.70
2022-11-29T03:37:06.704Z,48.70
2022-11-29T03:47:08.101Z,48.60
2022-11-29T03:57:09.483Z,48.70
2022-11-29T04:07:10.862Z,48.60
2022-11-29T04:17:12.250Z,48.70
2022-11-29T04:27:13.647Z,48.80
2022-11-29T04:37:15.045Z,48.60
2022-11-29T04:47:16.451Z,48.60
2022-11-29T04:57:17.860Z,48.60
2022-11-29T05:07:19.286Z,48.70
2022-11-29T05:17:20.684Z,48.60
2022-11-29T05:27:22.084Z,48.60
2022-11-29T05:37:23.482Z,48.60
2022-11-29T05:47:31.054Z,48.60
2022-11-29T05:57:32.895Z,48.60
2022-11-29T06:07:34.347Z,48.60
2022-11-29T06:17:39.005Z,48.60
2022-11-29T06:27:40.848Z,48.20
2022-11-29T06:37:42.241Z,47.40
2022-11-29T06:47:43.635Z,46.80
2022-11-29T06:57:45.010Z,46.50
2022-11-29T07:07:46.451Z,46.50
2022-11-29T07:17:47.897Z,46.30
2022-11-29T07:27:49.287Z,46.60
2022-11-29T07:37:50.700Z,46.70
2022-11-29T07:47:52.109Z,46.50
2022-11-29T07:57:53.508Z,48.20
2022-11-29T08:07:54.914Z,48.40
2022-11-29T08:17:56.386Z,47.90
2022-11-29T08:27:57.792Z,47.30
2022-11-29T08:37:59.188Z,47.10
2022-11-29T08:48:00.822Z,47.10
2022-11-29T08:58:02.273Z,47.20
2022-11-29T09:08:03.658Z,47.70
2022-11-29T09:18:05.070Z,48.80
2022-11-29T09:28:06.450Z,48.20
2022-11-29T09:38:07.818Z,48.00
2022-11-29T09:48:09.202Z,47.40
2022-11-29T09:58:10.595Z,48.00
2022-11-29T10:08:11.992Z,47.70
2022-11-29T10:18:13.398Z,48.00
2022-11-29T10:28:14.790Z,47.90
2022-11-29T10:38:30.876Z,48.00
2022-11-29T10:48:32.979Z,48.00
2022-11-29T10:58:34.360Z,48.40
2022-11-29T11:08:35.765Z,48.70
2022-11-29T11:18:37.155Z,48.60
2022-11-29T11:28:38.575Z,48.40
2022-11-29T11:38:39.965Z,48.90
2022-11-29T11:48:41.373Z,48.40
2022-11-29T11:58:42.760Z,48.20
2022-11-29T12:08:44.234Z,48.20
2022-11-29T12:18:45.656Z,48.40
2022-11-29T12:28:47.056Z,48.70
2022-11-29T12:38:48.460Z,49.30
2022-11-29T12:48:49.850Z,48.70
2022-11-29T12:58:51.375Z,48.10
2022-11-29T13:08:52.812Z,48.20
2022-11-29T13:18:54.211Z,48.20
2022-11-29T13:28:55.598Z,48.30
2022-11-29T13:38:56.983Z,48.40
2022-11-29T13:48:58.372Z,48.40
2022-11-29T13:59:00.023Z,48.60
2022-11-29T14:09:18.488Z,48.40
2022-11-29T14:19:20.901Z,48.40
2022-11-29T14:29:22.316Z,48.40
2022-11-29T14:39:23.709Z,50.30
2022-11-29T14:49:25.118Z,52.10
2022-11-29T14:59:26.520Z,52.70
2022-11-29T15:09:27.935Z,53.10
2022-11-29T15:19:29.329Z,53.00
2022-11-29T15:29:30.850Z,52.80
2022-11-29T15:39:32.256Z,53.20
2022-11-29T15:49:33.682Z,53.70
2022-11-29T15:59:35.082Z,53.80
2022-11-29T16:09:36.481Z,54.30
2022-11-29T16:19:37.892Z,54.80
2022-11-29T16:29:39.283Z,55.70
2022-11-29T16:39:40.664Z,56.20
2022-11-29T16:49:42.038Z,56.40
2022-11-29T16:59:43.440Z,56.50
2022-11-29T17:09:44.897Z,56.30
2022-11-29T17:19:46.283Z,56.50
2022-11-29T17:29:47.684Z,56.50
2022-11-29T17:39:50.144Z,56.60
2022-11-29T17:49:51.540Z,56.80
2022-11-29T17:59:52.938Z,56.50
2022-11-29T18:09:54.377Z,56.60
2022-11-29T18:19:55.848Z,55.80
2022-11-29T18:29:57.253Z,56.50
2022-11-29T18:39:58.651Z,56.80
2022-11-29T18:50:00.034Z,56.40
2022-11-29T19:00:01.447Z,57.00
2022-11-29T19:10:02.864Z,57.10
2022-11-29T19:20:04.250Z,57.10
2022-11-29T19:30:05.635Z,56.60
2022-11-29T19:40:07.015Z,56.70
2022-11-29T19:50:08.567Z,56.60
2022-11-29T20:00:09.988Z,56.40
2022-11-29T20:10:11.374Z,56.10
2022-11-29T20:20:12.801Z,55.80
2022-11-29T20:30:14.231Z,55.80
2022-11-29T20:40:15.634Z,55.80
2022-11-29T20:50:21.804Z,55.40
2022-11-29T21:00:24.827Z,55.40
2022-11-29T21:10:26.279Z,55.50
2022-11-29T21:20:27.661Z,55.40
2022-11-29T21:30:29.054Z,55.50
2022-11-29T21:40:30.447Z,55.70
2022-11-29T21:50:31.869Z,55.80
2022-11-29T22:00:37.412Z,56.20
2022-11-29T22:10:39.130Z,56.20
2022-11-29T22:20:40.529Z,56.30
2022-11-29T22:30:41.925Z,56.30
2022-11-29T22:40:43.315Z,56.00
2022-11-29T22:50:44.709Z,56.40
2022-11-29T23:00:46.153Z,56.40
2022-11-29T23:10:47.615Z,56.30
2022-11-29T23:20:49.027Z,56.10
2022-11-29T23:30:50.416Z,56.00
2022-11-29T23:40:51.826Z,56.00
2022-11-29T23:50:53.216Z,56.10
